Ewing, Missouri
Current Conditions -  °F | °C
As of 11:35 AM on Friday 24 Oct 2014 (Local Time) from KHAE Reporting Station
Moderate Fog Moderate Fog  
Wind Chill: 57°   Ceiling: 200
Heat Index: 57°   Visibility: 0.25mi
Dew Point: 55°   Wind: 7mph
Humidity: 94%   Direction: 190°S
Pressure: 30.1"   Gusts: NA
Location:  40.01°N, 91.71°W
Report Text: KHAE 241635Z AUTO 19006KT 1/4SM FG OVC002 14/13 A3010 RMK AO2
Loading
Personal Weather Stations






























Interactive Weather Map
Tropical Storm Tracking
New forecast layout! Learn more

10-Day Weather Forecast

Advertisements
Track Severe Weather on mobile